sensor_id;sensor_type;location;lat;lon;timestamp;temperature;humidity
3504;DHT22;1766;53.490;10.174;2024-01-30T00:05:29;12.70;41.50
3504;DHT22;1766;53.490;10.174;2024-01-30T00:07:30;12.60;41.90
3504;DHT22;1766;53.490;10.174;2024-01-30T00:09:33;12.60;42.00
3504;DHT22;1766;53.490;10.174;2024-01-30T00:11:35;12.60;42.00
3504;DHT22;1766;53.490;10.174;2024-01-30T00:13:37;12.60;42.00
3504;DHT22;1766;53.490;10.174;2024-01-30T00:15:39;12.60;41.90
3504;DHT22;1766;53.490;10.174;2024-01-30T00:20:16;12.60;42.50
3504;DHT22;1766;53.490;10.174;2024-01-30T00:22:19;12.60;42.10
3504;DHT22;1766;53.490;10.174;2024-01-30T00:24:21;12.50;42.00
3504;DHT22;1766;53.490;10.174;2024-01-30T00:26:22;12.50;42.00
3504;DHT22;1766;53.490;10.174;2024-01-30T00:28:24;12.60;42.10
3504;DHT22;1766;53.490;10.174;2024-01-30T00:30:26;12.60;42.20
3504;DHT22;1766;53.490;10.174;2024-01-30T00:32:27;12.60;42.10
3504;DHT22;1766;53.490;10.174;2024-01-30T00:34:29;12.60;42.00
3504;DHT22;1766;53.490;10.174;2024-01-30T00:36:31;12.60;42.10
3504;DHT22;1766;53.490;10.174;2024-01-30T00:38:36;12.70;42.20
3504;DHT22;1766;53.490;10.174;2024-01-30T00:40:38;12.70;42.30
3504;DHT22;1766;53.490;10.174;2024-01-30T00:42:40;12.70;42.10
3504;DHT22;1766;53.490;10.174;2024-01-30T00:44:42;12.70;42.00
3504;DHT22;1766;53.490;10.174;2024-01-30T00:46:45;12.70;42.10
3504;DHT22;1766;53.490;10.174;2024-01-30T00:48:47;12.70;42.10
3504;DHT22;1766;53.490;10.174;2024-01-30T00:50:49;12.70;42.10
3504;DHT22;1766;53.490;10.174;2024-01-30T00:52:50;12.80;42.20
3504;DHT22;1766;53.490;10.174;2024-01-30T00:54:53;12.70;42.10
3504;DHT22;1766;53.490;10.174;2024-01-30T00:56:55;12.70;42.10
3504;DHT22;1766;53.490;10.174;2024-01-30T00:58:57;12.70;42.00
3504;DHT22;1766;53.490;10.174;2024-01-30T01:00:59;12.80;42.20
3504;DHT22;1766;53.490;10.174;2024-01-30T01:03:01;12.70;42.10
3504;DHT22;1766;53.490;10.174;2024-01-30T01:05:03;12.60;42.10
3504;DHT22;1766;53.490;10.174;2024-01-30T01:07:05;12.60;42.00
3504;DHT22;1766;53.490;10.174;2024-01-30T01:09:07;12.60;42.10
3504;DHT22;1766;53.490;10.174;2024-01-30T01:11:09;12.60;42.10
3504;DHT22;1766;53.490;10.174;2024-01-30T01:13:11;12.60;42.10
3504;DHT22;1766;53.490;10.174;2024-01-30T01:15:13;12.60;42.10
3504;DHT22;1766;53.490;10.174;2024-01-30T01:17:14;12.60;42.10
3504;DHT22;1766;53.490;10.174;2024-01-30T01:19:16;12.60;42.10
3504;DHT22;1766;53.490;10.174;2024-01-30T01:21:17;12.60;42.10
3504;DHT22;1766;53.490;10.174;2024-01-30T01:23:19;12.60;42.10
3504;DHT22;1766;53.490;10.174;2024-01-30T01:25:24;12.50;42.10
3504;DHT22;1766;53.490;10.174;2024-01-30T01:27:27;12.50;41.80
3504;DHT22;1766;53.490;10.174;2024-01-30T01:29:29;12.40;42.00
3504;DHT22;1766;53.490;10.174;2024-01-30T01:31:31;12.40;42.00
3504;DHT22;1766;53.490;10.174;2024-01-30T01:33:32;12.40;42.10
3504;DHT22;1766;53.490;10.174;2024-01-30T01:35:34;12.40;42.20
3504;DHT22;1766;53.490;10.174;2024-01-30T01:37:36;12.40;42.30
3504;DHT22;1766;53.490;10.174;2024-01-30T01:39:38;12.30;42.10
3504;DHT22;1766;53.490;10.174;2024-01-30T01:41:40;12.30;42.10
3504;DHT22;1766;53.490;10.174;2024-01-30T01:43:43;12.30;42.20
3504;DHT22;1766;53.490;10.174;2024-01-30T01:45:44;12.30;42.20
3504;DHT22;1766;53.490;10.174;2024-01-30T01:47:48;12.30;42.30
3504;DHT22;1766;53.490;10.174;2024-01-30T01:49:52;12.30;42.30
3504;DHT22;1766;53.490;10.174;2024-01-30T01:51:55;12.20;42.30
3504;DHT22;1766;53.490;10.174;2024-01-30T01:53:59;12.20;42.40
3504;DHT22;1766;53.490;10.174;2024-01-30T01:56:05;12.10;42.20
3504;DHT22;1766;53.490;10.174;2024-01-30T01:58:07;12.20;42.40
3504;DHT22;1766;53.490;10.174;2024-01-30T02:00:12;12.20;42.40
3504;DHT22;1766;53.490;10.174;2024-01-30T02:02:17;12.20;42.50
3504;DHT22;1766;53.490;10.174;2024-01-30T02:04:19;12.10;42.30
3504;DHT22;1766;53.490;10.174;2024-01-30T02:06:21;12.10;42.40
3504;DHT22;1766;53.490;10.174;2024-01-30T02:08:24;12.10;42.40
3504;DHT22;1766;53.490;10.174;2024-01-30T02:10:25;12.20;42.50
3504;DHT22;1766;53.490;10.174;2024-01-30T02:12:27;12.10;42.40
3504;DHT22;1766;53.490;10.174;2024-01-30T02:14:29;12.10;42.40
3504;DHT22;1766;53.490;10.174;2024-01-30T02:16:32;12.10;42.40
3504;DHT22;1766;53.490;10.174;2024-01-30T02:18:34;12.00;42.40
3504;DHT22;1766;53.490;10.174;2024-01-30T02:20:37;12.10;42.40
3504;DHT22;1766;53.490;10.174;2024-01-30T02:22:41;12.10;42.50
3504;DHT22;1766;53.490;10.174;2024-01-30T02:24:44;12.10;42.60
3504;DHT22;1766;53.490;10.174;2024-01-30T02:26:46;12.10;42.50
3504;DHT22;1766;53.490;10.174;2024-01-30T02:28:48;12.10;42.60
3504;DHT22;1766;53.490;10.174;2024-01-30T02:30:50;12.00;42.50
3504;DHT22;1766;53.490;10.174;2024-01-30T02:32:51;12.00;42.40
3504;DHT22;1766;53.490;10.174;2024-01-30T02:34:53;12.00;42.50
3504;DHT22;1766;53.490;10.174;2024-01-30T02:36:55;12.00;42.60
3504;DHT22;1766;53.490;10.174;2024-01-30T02:38:58;11.90;42.60
3504;DHT22;1766;53.490;10.174;2024-01-30T02:41:00;11.90;42.50
3504;DHT22;1766;53.490;10.174;2024-01-30T02:43:02;11.90;42.60
3504;DHT22;1766;53.490;10.174;2024-01-30T02:45:05;11.90;42.70
3504;DHT22;1766;53.490;10.174;2024-01-30T02:47:07;11.90;42.80
3504;DHT22;1766;53.490;10.174;2024-01-30T02:49:09;11.90;42.70
3504;DHT22;1766;53.490;10.174;2024-01-30T02:51:11;11.90;42.80
3504;DHT22;1766;53.490;10.174;2024-01-30T02:53:13;11.90;42.80
3504;DHT22;1766;53.490;10.174;2024-01-30T02:55:15;11.90;42.90
3504;DHT22;1766;53.490;10.174;2024-01-30T02:57:18;11.90;42.90
3504;DHT22;1766;53.490;10.174;2024-01-30T02:59:20;12.00;42.90
3504;DHT22;1766;53.490;10.174;2024-01-30T03:01:22;12.00;43.00
3504;DHT22;1766;53.490;10.174;2024-01-30T03:03:25;12.00;43.00
3504;DHT22;1766;53.490;10.174;2024-01-30T03:05:26;12.00;43.00
3504;DHT22;1766;53.490;10.174;2024-01-30T03:07:27;12.00;42.90
3504;DHT22;1766;53.490;10.174;2024-01-30T03:09:29;12.00;43.10
3504;DHT22;1766;53.490;10.174;2024-01-30T03:11:32;12.00;43.10
3504;DHT22;1766;53.490;10.174;2024-01-30T03:13:34;12.00;43.00
3504;DHT22;1766;53.490;10.174;2024-01-30T03:15:36;12.00;43.10
3504;DHT22;1766;53.490;10.174;2024-01-30T03:17:38;12.00;43.10
3504;DHT22;1766;53.490;10.174;2024-01-30T03:19:39;12.00;43.10
3504;DHT22;1766;53.490;10.174;2024-01-30T03:21:41;12.00;43.10
3504;DHT22;1766;53.490;10.174;2024-01-30T03:23:43;11.90;43.10
3504;DHT22;1766;53.490;10.174;2024-01-30T03:25:45;11.90;43.20
3504;DHT22;1766;53.490;10.174;2024-01-30T03:27:49;11.90;43.20
3504;DHT22;1766;53.490;10.174;2024-01-30T03:29:51;11.80;43.20
3504;DHT22;1766;53.490;10.174;2024-01-30T03:31:53;11.80;43.30
3504;DHT22;1766;53.490;10.174;2024-01-30T03:33:58;11.80;43.40
3504;DHT22;1766;53.490;10.174;2024-01-30T03:36:03;11.80;43.40
3504;DHT22;1766;53.490;10.174;2024-01-30T03:38:05;11.80;43.60
3504;DHT22;1766;53.490;10.174;2024-01-30T03:40:08;11.80;43.40
3504;DHT22;1766;53.490;10.174;2024-01-30T03:42:10;11.80;43.50
3504;DHT22;1766;53.490;10.174;2024-01-30T03:44:13;11.80;43.50
3504;DHT22;1766;53.490;10.174;2024-01-30T03:46:15;11.90;43.60
3504;DHT22;1766;53.490;10.174;2024-01-30T03:48:17;11.80;43.40
3504;DHT22;1766;53.490;10.174;2024-01-30T03:50:22;11.90;43.60
3504;DHT22;1766;53.490;10.174;2024-01-30T03:52:24;11.90;43.50
3504;DHT22;1766;53.490;10.174;2024-01-30T03:54:26;11.90;43.60
3504;DHT22;1766;53.490;10.174;2024-01-30T03:56:29;11.90;43.60
3504;DHT22;1766;53.490;10.174;2024-01-30T03:58:31;11.90;43.50
3504;DHT22;1766;53.490;10.174;2024-01-30T04:00:34;11.90;43.50
3504;DHT22;1766;53.490;10.174;2024-01-30T04:02:36;11.90;43.50
3504;DHT22;1766;53.490;10.174;2024-01-30T04:04:38;11.90;43.50
3504;DHT22;1766;53.490;10.174;2024-01-30T04:06:40;11.80;43.50
3504;DHT22;1766;53.490;10.174;2024-01-30T04:08:42;11.80;43.50
3504;DHT22;1766;53.490;10.174;2024-01-30T04:10:43;11.80;43.60
3504;DHT22;1766;53.490;10.174;2024-01-30T04:12:45;11.80;43.70
3504;DHT22;1766;53.490;10.174;2024-01-30T04:14:47;11.80;43.80
3504;DHT22;1766;53.490;10.174;2024-01-30T04:16:50;11.70;43.70
3504;DHT22;1766;53.490;10.174;2024-01-30T04:18:52;11.70;43.70
3504;DHT22;1766;53.490;10.174;2024-01-30T04:20:54;11.70;43.80
3504;DHT22;1766;53.490;10.174;2024-01-30T04:22:56;11.60;43.80
3504;DHT22;1766;53.490;10.174;2024-01-30T04:24:58;11.70;43.90
3504;DHT22;1766;53.490;10.174;2024-01-30T04:27:00;11.70;43.90
3504;DHT22;1766;53.490;10.174;2024-01-30T04:29:02;11.70;44.00
3504;DHT22;1766;53.490;10.174;2024-01-30T04:31:04;11.70;44.00
3504;DHT22;1766;53.490;10.174;2024-01-30T04:33:07;11.70;44.00
3504;DHT22;1766;53.490;10.174;2024-01-30T04:35:09;11.70;44.10
3504;DHT22;1766;53.490;10.174;2024-01-30T04:37:10;11.70;44.10
3504;DHT22;1766;53.490;10.174;2024-01-30T04:39:12;11.70;44.20
3504;DHT22;1766;53.490;10.174;2024-01-30T04:41:14;11.70;44.30
3504;DHT22;1766;53.490;10.174;2024-01-30T04:43:16;11.70;44.30
3504;DHT22;1766;53.490;10.174;2024-01-30T04:45:17;11.70;44.20
3504;DHT22;1766;53.490;10.174;2024-01-30T04:47:19;11.80;44.40
3504;DHT22;1766;53.490;10.174;2024-01-30T04:49:22;11.70;44.40
3504;DHT22;1766;53.490;10.174;2024-01-30T04:51:24;11.70;44.40
3504;DHT22;1766;53.490;10.174;2024-01-30T04:53:25;11.70;44.30
3504;DHT22;1766;53.490;10.174;2024-01-30T04:55:27;11.70;44.40
3504;DHT22;1766;53.490;10.174;2024-01-30T04:57:29;11.70;44.40
3504;DHT22;1766;53.490;10.174;2024-01-30T04:59:32;11.80;44.60
3504;DHT22;1766;53.490;10.174;2024-01-30T05:01:34;11.80;44.60
3504;DHT22;1766;53.490;10.174;2024-01-30T05:03:35;11.80;44.50
3504;DHT22;1766;53.490;10.174;2024-01-30T05:05:38;11.80;44.60
3504;DHT22;1766;53.490;10.174;2024-01-30T05:07:41;11.80;44.70
3504;DHT22;1766;53.490;10.174;2024-01-30T05:09:43;11.80;44.70
3504;DHT22;1766;53.490;10.174;2024-01-30T05:11:45;11.80;44.70
3504;DHT22;1766;53.490;10.174;2024-01-30T05:13:47;11.80;44.80
3504;DHT22;1766;53.490;10.174;2024-01-30T05:15:49;11.70;44.70
3504;DHT22;1766;53.490;10.174;2024-01-30T05:17:49;11.70;44.80
3504;DHT22;1766;53.490;10.174;2024-01-30T05:19:51;11.80;45.00
3504;DHT22;1766;53.490;10.174;2024-01-30T05:21:54;11.80;44.90
3504;DHT22;1766;53.490;10.174;2024-01-30T05:23:56;11.80;44.90
3504;DHT22;1766;53.490;10.174;2024-01-30T05:25:59;11.80;45.00
3504;DHT22;1766;53.490;10.174;2024-01-30T05:28:01;11.80;45.10
3504;DHT22;1766;53.490;10.174;2024-01-30T05:30:04;11.80;45.10
3504;DHT22;1766;53.490;10.174;2024-01-30T05:32:06;11.80;45.20
3504;DHT22;1766;53.490;10.174;2024-01-30T05:34:08;11.80;45.20
3504;DHT22;1766;53.490;10.174;2024-01-30T05:36:11;11.80;45.20
3504;DHT22;1766;53.490;10.174;2024-01-30T05:38:15;11.80;45.20
3504;DHT22;1766;53.490;10.174;2024-01-30T05:40:17;11.80;45.40
3504;DHT22;1766;53.490;10.174;2024-01-30T05:42:19;11.80;45.30
3504;DHT22;1766;53.490;10.174;2024-01-30T05:44:21;11.80;45.40
3504;DHT22;1766;53.490;10.174;2024-01-30T05:46:23;11.80;45.40
3504;DHT22;1766;53.490;10.174;2024-01-30T05:48:25;11.80;45.30
3504;DHT22;1766;53.490;10.174;2024-01-30T05:50:27;11.80;45.30
3504;DHT22;1766;53.490;10.174;2024-01-30T05:52:29;11.80;45.50
3504;DHT22;1766;53.490;10.174;2024-01-30T05:54:32;11.80;45.50
3504;DHT22;1766;53.490;10.174;2024-01-30T05:56:34;11.80;45.50
3504;DHT22;1766;53.490;10.174;2024-01-30T05:58:36;11.80;45.50
3504;DHT22;1766;53.490;10.174;2024-01-30T06:00:37;11.80;45.50
3504;DHT22;1766;53.490;10.174;2024-01-30T06:02:39;11.80;45.60
3504;DHT22;1766;53.490;10.174;2024-01-30T06:04:40;11.80;45.50
3504;DHT22;1766;53.490;10.174;2024-01-30T06:06:42;11.80;45.30
3504;DHT22;1766;53.490;10.174;2024-01-30T06:08:44;11.80;45.80
3504;DHT22;1766;53.490;10.174;2024-01-30T06:10:47;11.80;45.70
3504;DHT22;1766;53.490;10.174;2024-01-30T06:12:49;11.80;45.80
3504;DHT22;1766;53.490;10.174;2024-01-30T06:14:51;11.80;45.80
3504;DHT22;1766;53.490;10.174;2024-01-30T06:16:54;11.80;45.80
3504;DHT22;1766;53.490;10.174;2024-01-30T06:18:55;11.80;45.80
3504;DHT22;1766;53.490;10.174;2024-01-30T06:20:57;11.80;45.90
3504;DHT22;1766;53.490;10.174;2024-01-30T06:22:59;11.80;45.80
3504;DHT22;1766;53.490;10.174;2024-01-30T06:25:00;11.80;46.40
3504;DHT22;1766;53.490;10.174;2024-01-30T06:27:03;11.80;45.90
3504;DHT22;1766;53.490;10.174;2024-01-30T06:29:06;11.70;46.00
3504;DHT22;1766;53.490;10.174;2024-01-30T06:31:08;11.70;46.00
3504;DHT22;1766;53.490;10.174;2024-01-30T06:33:12;11.70;46.00
3504;DHT22;1766;53.490;10.174;2024-01-30T06:35:14;11.80;46.20
3504;DHT22;1766;53.490;10.174;2024-01-30T06:37:15;11.80;46.20
3504;DHT22;1766;53.490;10.174;2024-01-30T06:39:17;11.80;46.20
3504;DHT22;1766;53.490;10.174;2024-01-30T06:41:19;11.80;46.70
3504;DHT22;1766;53.490;10.174;2024-01-30T06:43:23;11.80;45.90
3504;DHT22;1766;53.490;10.174;2024-01-30T06:45:25;11.80;46.20
3504;DHT22;1766;53.490;10.174;2024-01-30T06:47:27;11.90;46.40
3504;DHT22;1766;53.490;10.174;2024-01-30T06:49:31;11.90;46.40
3504;DHT22;1766;53.490;10.174;2024-01-30T06:51:33;11.90;46.40
3504;DHT22;1766;53.490;10.174;2024-01-30T06:53:35;11.90;46.50
3504;DHT22;1766;53.490;10.174;2024-01-30T06:55:36;11.90;46.50
3504;DHT22;1766;53.490;10.174;2024-01-30T06:57:38;11.90;46.50
3504;DHT22;1766;53.490;10.174;2024-01-30T06:59:42;11.90;46.60
3504;DHT22;1766;53.490;10.174;2024-01-30T07:01:44;11.90;46.70
3504;DHT22;1766;53.490;10.174;2024-01-30T07:03:46;11.90;46.70
3504;DHT22;1766;53.490;10.174;2024-01-30T07:05:48;11.90;46.70
3504;DHT22;1766;53.490;10.174;2024-01-30T07:07:50;11.90;46.70
3504;DHT22;1766;53.490;10.174;2024-01-30T07:09:52;11.90;46.80
3504;DHT22;1766;53.490;10.174;2024-01-30T07:11:57;12.00;46.80
3504;DHT22;1766;53.490;10.174;2024-01-30T07:13:59;12.00;46.90
3504;DHT22;1766;53.490;10.174;2024-01-30T07:16:05;12.00;46.90
3504;DHT22;1766;53.490;10.174;2024-01-30T07:18:08;12.00;47.00
3504;DHT22;1766;53.490;10.174;2024-01-30T07:20:10;12.00;46.90
3504;DHT22;1766;53.490;10.174;2024-01-30T07:22:11;12.00;46.90
3504;DHT22;1766;53.490;10.174;2024-01-30T07:24:13;12.00;46.90
3504;DHT22;1766;53.490;10.174;2024-01-30T07:26:15;12.00;47.00
3504;DHT22;1766;53.490;10.174;2024-01-30T07:28:17;12.00;47.00
3504;DHT22;1766;53.490;10.174;2024-01-30T07:30:18;12.00;47.00
3504;DHT22;1766;53.490;10.174;2024-01-30T07:32:21;12.00;47.10
3504;DHT22;1766;53.490;10.174;2024-01-30T07:34:22;12.00;47.10
3504;DHT22;1766;53.490;10.174;2024-01-30T07:36:24;12.00;47.10
3504;DHT22;1766;53.490;10.174;2024-01-30T07:38:26;12.00;47.20
3504;DHT22;1766;53.490;10.174;2024-01-30T07:40:28;12.00;47.20
3504;DHT22;1766;53.490;10.174;2024-01-30T07:42:30;12.00;47.30
3504;DHT22;1766;53.490;10.174;2024-01-30T07:44:32;12.00;47.40
3504;DHT22;1766;53.490;10.174;2024-01-30T07:46:33;12.00;47.30
3504;DHT22;1766;53.490;10.174;2024-01-30T07:48:36;12.00;47.40
3504;DHT22;1766;53.490;10.174;2024-01-30T07:50:38;12.00;47.30
3504;DHT22;1766;53.490;10.174;2024-01-30T07:52:40;12.00;47.40
3504;DHT22;1766;53.490;10.174;2024-01-30T07:54:43;12.10;47.50
3504;DHT22;1766;53.490;10.174;2024-01-30T07:56:44;12.10;47.50
3504;DHT22;1766;53.490;10.174;2024-01-30T07:58:45;12.10;47.50
3504;DHT22;1766;53.490;10.174;2024-01-30T08:00:47;12.10;47.50
3504;DHT22;1766;53.490;10.174;2024-01-30T08:02:49;12.00;47.50
3504;DHT22;1766;53.490;10.174;2024-01-30T08:04:55;12.00;47.60
3504;DHT22;1766;53.490;10.174;2024-01-30T08:06:57;12.00;47.60
3504;DHT22;1766;53.490;10.174;2024-01-30T08:08:59;12.00;47.70
3504;DHT22;1766;53.490;10.174;2024-01-30T08:11:01;12.00;47.70
3504;DHT22;1766;53.490;10.174;2024-01-30T08:13:03;12.10;47.80
3504;DHT22;1766;53.490;10.174;2024-01-30T08:15:05;12.10;47.80
3504;DHT22;1766;53.490;10.174;2024-01-30T08:17:08;12.10;47.80
3504;DHT22;1766;53.490;10.174;2024-01-30T08:19:10;12.10;47.80
3504;DHT22;1766;53.490;10.174;2024-01-30T08:21:13;12.10;47.80
3504;DHT22;1766;53.490;10.174;2024-01-30T08:23:15;12.10;47.90
3504;DHT22;1766;53.490;10.174;2024-01-30T08:25:16;12.20;48.00
3504;DHT22;1766;53.490;10.174;2024-01-30T08:27:18;12.20;48.00
3504;DHT22;1766;53.490;10.174;2024-01-30T08:29:20;12.20;47.60
3504;DHT22;1766;53.490;10.174;2024-01-30T08:31:22;12.20;48.00
3504;DHT22;1766;53.490;10.174;2024-01-30T08:33:24;12.30;48.10
3504;DHT22;1766;53.490;10.174;2024-01-30T08:35:26;12.30;48.10
3504;DHT22;1766;53.490;10.174;2024-01-30T08:37:29;12.30;48.00
3504;DHT22;1766;53.490;10.174;2024-01-30T08:39:31;12.30;48.10
3504;DHT22;1766;53.490;10.174;2024-01-30T08:41:33;12.30;48.10
3504;DHT22;1766;53.490;10.174;2024-01-30T08:43:35;12.30;48.10
3504;DHT22;1766;53.490;10.174;2024-01-30T08:45:37;12.40;48.20
3504;DHT22;1766;53.490;10.174;2024-01-30T08:47:40;12.40;48.20
3504;DHT22;1766;53.490;10.174;2024-01-30T08:49:42;12.40;48.20
3504;DHT22;1766;53.490;10.174;2024-01-30T08:51:44;12.50;48.30
3504;DHT22;1766;53.490;10.174;2024-01-30T08:53:48;12.50;48.30
3504;DHT22;1766;53.490;10.174;2024-01-30T08:55:49;12.50;48.30
3504;DHT22;1766;53.490;10.174;2024-01-30T08:57:51;12.60;48.40
3504;DHT22;1766;53.490;10.174;2024-01-30T08:59:53;12.60;48.30
3504;DHT22;1766;53.490;10.174;2024-01-30T09:01:54;12.60;48.30
3504;DHT22;1766;53.490;10.174;2024-01-30T09:03:58;12.70;48.40
3504;DHT22;1766;53.490;10.174;2024-01-30T09:05:59;12.70;48.40
3504;DHT22;1766;53.490;10.174;2024-01-30T09:08:01;12.70;48.50
3504;DHT22;1766;53.490;10.174;2024-01-30T09:10:05;12.70;48.50
3504;DHT22;1766;53.490;10.174;2024-01-30T09:12:08;12.80;48.60
3504;DHT22;1766;53.490;10.174;2024-01-30T09:14:12;12.80;48.70
3504;DHT22;1766;53.490;10.174;2024-01-30T09:16:12;12.90;48.60
3504;DHT22;1766;53.490;10.174;2024-01-30T09:18:16;13.00;48.70
3504;DHT22;1766;53.490;10.174;2024-01-30T09:20:18;13.00;48.60
3504;DHT22;1766;53.490;10.174;2024-01-30T09:22:20;13.10;48.70
3504;DHT22;1766;53.490;10.174;2024-01-30T09:24:21;13.10;48.60
3504;DHT22;1766;53.490;10.174;2024-01-30T09:26:25;13.10;48.60
3504;DHT22;1766;53.490;10.174;2024-01-30T09:28:27;13.20;48.70
3504;DHT22;1766;53.490;10.174;2024-01-30T09:30:28;13.20;48.70
3504;DHT22;1766;53.490;10.174;2024-01-30T09:32:30;13.30;48.80
3504;DHT22;1766;53.490;10.174;2024-01-30T09:34:32;13.30;48.80
3504;DHT22;1766;53.490;10.174;2024-01-30T09:36:34;13.40;48.90
3504;DHT22;1766;53.490;10.174;2024-01-30T09:38:36;13.40;48.70
3504;DHT22;1766;53.490;10.174;2024-01-30T09:40:37;13.50;48.70
3504;DHT22;1766;53.490;10.174;2024-01-30T09:42:40;13.50;48.70
3504;DHT22;1766;53.490;10.174;2024-01-30T09:44:45;13.60;48.90
3504;DHT22;1766;53.490;10.174;2024-01-30T09:46:48;13.60;48.80
3504;DHT22;1766;53.490;10.174;2024-01-30T09:48:50;13.60;48.70
3504;DHT22;1766;53.490;10.174;2024-01-30T09:50:52;13.70;48.70
3504;DHT22;1766;53.490;10.174;2024-01-30T09:52:55;13.70;48.70
3504;DHT22;1766;53.490;10.174;2024-01-30T09:54:59;13.70;48.70
3504;DHT22;1766;53.490;10.174;2024-01-30T09:57:03;13.60;48.60
3504;DHT22;1766;53.490;10.174;2024-01-30T09:59:06;13.60;48.60
3504;DHT22;1766;53.490;10.174;2024-01-30T10:01:08;13.60;48.50
3504;DHT22;1766;53.490;10.174;2024-01-30T10:03:11;13.60;48.50
3504;DHT22;1766;53.490;10.174;2024-01-30T10:05:18;13.60;48.50
3504;DHT22;1766;53.490;10.174;2024-01-30T10:07:35;13.60;48.60
3504;DHT22;1766;53.490;10.174;2024-01-30T10:09:37;13.50;49.00
3504;DHT22;1766;53.490;10.174;2024-01-30T10:11:39;13.50;48.50
3504;DHT22;1766;53.490;10.174;2024-01-30T10:13:40;13.60;48.60
3504;DHT22;1766;53.490;10.174;2024-01-30T10:15:43;13.60;48.60
3504;DHT22;1766;53.490;10.174;2024-01-30T10:17:46;13.70;48.60
3504;DHT22;1766;53.490;10.174;2024-01-30T10:19:48;13.80;48.30
3504;DHT22;1766;53.490;10.174;2024-01-30T10:21:50;13.80;48.60
3504;DHT22;1766;53.490;10.174;2024-01-30T10:23:52;13.80;48.50
3504;DHT22;1766;53.490;10.174;2024-01-30T10:25:54;13.90;48.60
3504;DHT22;1766;53.490;10.174;2024-01-30T10:27:56;13.90;48.50
3504;DHT22;1766;53.490;10.174;2024-01-30T10:29:58;14.00;48.50
3504;DHT22;1766;53.490;10.174;2024-01-30T10:32:02;14.00;48.20
3504;DHT22;1766;53.490;10.174;2024-01-30T10:34:05;14.00;48.60
3504;DHT22;1766;53.490;10.174;2024-01-30T10:36:06;14.00;48.40
3504;DHT22;1766;53.490;10.174;2024-01-30T10:38:10;14.10;48.60
3504;DHT22;1766;53.490;10.174;2024-01-30T10:40:16;14.10;48.50
3504;DHT22;1766;53.490;10.174;2024-01-30T10:42:18;14.10;48.30
3504;DHT22;1766;53.490;10.174;2024-01-30T10:44:22;14.10;48.40
3504;DHT22;1766;53.490;10.174;2024-01-30T10:46:27;14.20;48.90
3504;DHT22;1766;53.490;10.174;2024-01-30T10:48:36;14.20;48.50
3504;DHT22;1766;53.490;10.174;2024-01-30T10:50:45;14.20;48.40
3504;DHT22;1766;53.490;10.174;2024-01-30T10:52:47;14.30;48.40
3504;DHT22;1766;53.490;10.174;2024-01-30T10:54:50;14.30;48.30
3504;DHT22;1766;53.490;10.174;2024-01-30T10:56:53;14.40;49.00
3504;DHT22;1766;53.490;10.174;2024-01-30T10:58:55;14.40;48.40
3504;DHT22;1766;53.490;10.174;2024-01-30T11:00:57;14.50;48.40
3504;DHT22;1766;53.490;10.174;2024-01-30T11:02:59;14.50;48.40
3504;DHT22;1766;53.490;10.174;2024-01-30T11:05:05;14.60;48.40
3504;DHT22;1766;53.490;10.174;2024-01-30T11:07:14;14.60;48.20
3504;DHT22;1766;53.490;10.174;2024-01-30T11:09:18;14.60;48.20
3504;DHT22;1766;53.490;10.174;2024-01-30T11:11:20;14.60;48.20
3504;DHT22;1766;53.490;10.174;2024-01-30T11:13:22;14.60;48.10
3504;DHT22;1766;53.490;10.174;2024-01-30T11:15:28;14.70;48.30
3504;DHT22;1766;53.490;10.174;2024-01-30T11:19:36;14.80;48.30
3504;DHT22;1766;53.490;10.174;2024-01-30T11:21:42;14.80;48.10
3504;DHT22;1766;53.490;10.174;2024-01-30T11:33:01;14.90;47.60
3504;DHT22;1766;53.490;10.174;2024-01-30T11:35:05;15.00;48.00
3504;DHT22;1766;53.490;10.174;2024-01-30T11:37:12;15.00;48.00
3504;DHT22;1766;53.490;10.174;2024-01-30T11:39:16;15.00;48.00
3504;DHT22;1766;53.490;10.174;2024-01-30T11:41:19;15.00;48.00
3504;DHT22;1766;53.490;10.174;2024-01-30T11:43:21;15.10;48.10
3504;DHT22;1766;53.490;10.174;2024-01-30T11:45:23;15.10;48.00
3504;DHT22;1766;53.490;10.174;2024-01-30T11:47:25;15.10;48.40
3504;DHT22;1766;53.490;10.174;2024-01-30T11:49:26;15.10;47.90
3504;DHT22;1766;53.490;10.174;2024-01-30T11:51:31;15.20;48.00
3504;DHT22;1766;53.490;10.174;2024-01-30T11:53:34;15.10;47.90
3504;DHT22;1766;53.490;10.174;2024-01-30T11:55:36;15.20;48.00
3504;DHT22;1766;53.490;10.174;2024-01-30T11:57:38;15.10;47.80
3504;DHT22;1766;53.490;10.174;2024-01-30T11:59:39;15.20;47.90
3504;DHT22;1766;53.490;10.174;2024-01-30T12:01:41;15.10;47.80
3504;DHT22;1766;53.490;10.174;2024-01-30T12:03:49;15.10;47.80
3504;DHT22;1766;53.490;10.174;2024-01-30T12:05:55;15.20;48.00
3504;DHT22;1766;53.490;10.174;2024-01-30T12:07:58;15.20;48.00
3504;DHT22;1766;53.490;10.174;2024-01-30T12:10:01;15.20;48.00
3504;DHT22;1766;53.490;10.174;2024-01-30T12:12:03;15.20;48.00
3504;DHT22;1766;53.490;10.174;2024-01-30T12:14:06;15.20;48.00
3504;DHT22;1766;53.490;10.174;2024-01-30T12:16:07;15.30;48.00
3504;DHT22;1766;53.490;10.174;2024-01-30T12:18:09;15.30;48.00
3504;DHT22;1766;53.490;10.174;2024-01-30T12:20:12;15.30;48.00
3504;DHT22;1766;53.490;10.174;2024-01-30T12:22:15;15.30;48.10
3504;DHT22;1766;53.490;10.174;2024-01-30T12:24:17;15.30;48.50
3504;DHT22;1766;53.490;10.174;2024-01-30T12:26:19;15.30;48.00
3504;DHT22;1766;53.490;10.174;2024-01-30T12:28:21;15.30;48.00
3504;DHT22;1766;53.490;10.174;2024-01-30T12:30:23;15.30;48.00
3504;DHT22;1766;53.490;10.174;2024-01-30T12:32:25;15.30;48.00
3504;DHT22;1766;53.490;10.174;2024-01-30T12:34:27;15.40;48.20
3504;DHT22;1766;53.490;10.174;2024-01-30T12:36:29;15.40;48.10
3504;DHT22;1766;53.490;10.174;2024-01-30T12:38:31;15.40;48.10
3504;DHT22;1766;53.490;10.174;2024-01-30T12:40:33;15.40;48.10
3504;DHT22;1766;53.490;10.174;2024-01-30T12:42:36;15.50;48.20
3504;DHT22;1766;53.490;10.174;2024-01-30T12:44:39;15.50;48.20
3504;DHT22;1766;53.490;10.174;2024-01-30T12:46:41;15.50;48.20
3504;DHT22;1766;53.490;10.174;2024-01-30T12:48:42;15.50;48.20
3504;DHT22;1766;53.490;10.174;2024-01-30T12:50:43;15.50;48.20
3504;DHT22;1766;53.490;10.174;2024-01-30T12:52:45;15.50;48.30
3504;DHT22;1766;53.490;10.174;2024-01-30T12:54:46;15.60;48.30
3504;DHT22;1766;53.490;10.174;2024-01-30T12:56:48;15.60;48.30
3504;DHT22;1766;53.490;10.174;2024-01-30T12:58:51;15.60;48.30
3504;DHT22;1766;53.490;10.174;2024-01-30T13:00:54;15.70;48.30
3504;DHT22;1766;53.490;10.174;2024-01-30T13:02:56;15.70;48.40
3504;DHT22;1766;53.490;10.174;2024-01-30T13:04:58;15.70;48.30
3504;DHT22;1766;53.490;10.174;2024-01-30T13:06:59;15.70;48.30
3504;DHT22;1766;53.490;10.174;2024-01-30T13:09:01;15.80;48.40
3504;DHT22;1766;53.490;10.174;2024-01-30T13:11:03;15.90;48.50
3504;DHT22;1766;53.490;10.174;2024-01-30T13:13:05;15.80;48.50
3504;DHT22;1766;53.490;10.174;2024-01-30T13:15:08;15.80;48.50
3504;DHT22;1766;53.490;10.174;2024-01-30T13:17:11;15.90;48.50
3504;DHT22;1766;53.490;10.174;2024-01-30T13:19:13;15.90;48.50
3504;DHT22;1766;53.490;10.174;2024-01-30T13:21:15;15.90;48.50
3504;DHT22;1766;53.490;10.174;2024-01-30T13:23:17;15.90;48.60